createdAt,value
2019-01-19T00:02:19.549Z,30.60
2019-01-19T00:05:25.718Z,30.60
2019-01-19T00:08:26.965Z,30.70
2019-01-19T00:11:27.870Z,30.60
2019-01-19T00:14:59.586Z,30.60
2019-01-19T00:18:35.025Z,30.60
2019-01-19T00:21:35.840Z,30.60
2019-01-19T00:24:46.832Z,30.60
2019-01-19T00:27:52.384Z,30.60
2019-01-19T00:30:35.275Z,30.60
2019-01-19T00:34:01.405Z,30.60
2019-01-19T00:36:45.700Z,30.60
2019-01-19T00:40:05.167Z,30.60
2019-01-19T00:43:07.357Z,30.60
2019-01-19T00:46:28.789Z,30.70
2019-01-19T00:49:14.866Z,30.70
2019-01-19T00:52:30.717Z,30.70
2019-01-19T00:55:25.987Z,30.70
2019-01-19T00:58:52.210Z,30.70
2019-01-19T01:01:56.857Z,30.70
2019-01-19T01:04:49.649Z,30.70
2019-01-19T01:08:21.558Z,30.70
2019-01-19T01:11:11.084Z,30.70
2019-01-19T01:14:27.582Z,30.80
2019-01-19T01:17:25.971Z,30.80
2019-01-19T01:20:29.815Z,30.80
2019-01-19T01:23:12.419Z,30.90
2019-01-19T01:26:21.837Z,30.90
2019-01-19T01:29:27.118Z,30.90
2019-01-19T01:32:18.074Z,31.00
2019-01-19T01:35:20.071Z,31.00
2019-01-19T01:38:04.824Z,31.00
2019-01-19T01:41:13.980Z,31.00
2019-01-19T01:44:17.639Z,31.00
2019-01-19T01:47:43.068Z,31.10
2019-01-19T01:50:49.429Z,31.10
2019-01-19T01:53:47.901Z,31.10
2019-01-19T01:56:22.830Z,31.10
2019-01-19T01:59:38.599Z,31.10
2019-01-19T02:02:58.517Z,31.10
2019-01-19T02:05:45.057Z,31.20
2019-01-19T02:08:51.776Z,31.20
2019-01-19T02:11:44.526Z,31.20
2019-01-19T02:15:06.154Z,31.20
2019-01-19T02:18:24.472Z,31.20
2019-01-19T02:21:31.438Z,31.20
2019-01-19T02:24:57.622Z,31.20
2019-01-19T02:28:05.882Z,31.20
2019-01-19T02:31:21.687Z,31.20
2019-01-19T02:34:33.577Z,31.20
2019-01-19T02:37:55.112Z,31.20
2019-01-19T02:40:59.421Z,31.20
2019-01-19T02:44:10.647Z,31.20
2019-01-19T02:47:10.606Z,31.20
2019-01-19T02:50:00.886Z,31.20
2019-01-19T02:53:14.654Z,31.20
2019-01-19T02:56:10.030Z,31.20
2019-01-19T02:59:20.000Z,31.20
2019-01-19T03:02:03.002Z,31.30
2019-01-19T03:05:24.377Z,31.30
2019-01-19T03:08:41.643Z,31.30
2019-01-19T03:11:49.783Z,31.30
2019-01-19T03:15:03.941Z,31.30
2019-01-19T03:18:17.612Z,31.30
2019-01-19T03:21:38.175Z,31.30
2019-01-19T03:24:57.827Z,31.40
2019-01-19T03:28:17.470Z,31.40
2019-01-19T03:31:32.402Z,31.40
2019-01-19T03:34:44.581Z,31.40
2019-01-19T03:37:56.211Z,31.40
2019-01-19T03:41:30.913Z,31.40
2019-01-19T03:44:21.082Z,31.50
2019-01-19T03:47:28.968Z,31.50
2019-01-19T03:50:41.779Z,31.50
2019-01-19T03:54:00.476Z,31.50
2019-01-19T03:56:49.275Z,31.50
2019-01-19T03:59:46.519Z,31.50
2019-01-19T04:02:59.952Z,31.50
2019-01-19T04:06:17.752Z,31.50
2019-01-19T04:09:30.314Z,31.60
2019-01-19T04:12:38.249Z,31.60
2019-01-19T04:16:01.773Z,31.70
2019-01-19T04:19:04.484Z,31.70
2019-01-19T04:21:54.291Z,31.70
2019-01-19T04:24:42.510Z,31.70
2019-01-19T04:27:16.719Z,31.70
2019-01-19T04:29:51.831Z,31.70
2019-01-19T04:32:26.717Z,31.80
2019-01-19T04:35:01.635Z,31.80
2019-01-19T04:37:36.388Z,31.80
2019-01-19T04:40:12.731Z,31.90
2019-01-19T04:42:48.154Z,31.90
2019-01-19T04:45:22.393Z,31.90
2019-01-19T04:47:57.088Z,32.00
2019-01-19T04:50:31.359Z,32.00
2019-01-19T04:53:06.375Z,32.00
2019-01-19T04:55:40.842Z,32.00
2019-01-19T04:58:15.612Z,32.00
2019-01-19T05:00:50.090Z,32.10
2019-01-19T05:03:24.461Z,32.10
2019-01-19T05:05:58.881Z,32.10
2019-01-19T05:08:32.950Z,32.20
2019-01-19T05:11:07.630Z,32.20
2019-01-19T05:13:42.298Z,32.20
2019-01-19T05:16:16.576Z,32.30
2019-01-19T05:18:51.050Z,32.30
2019-01-19T05:21:25.439Z,32.30
2019-01-19T05:24:00.061Z,32.30
2019-01-19T05:26:34.356Z,32.40
2019-01-19T05:29:09.012Z,32.40
2019-01-19T05:31:43.263Z,32.40
2019-01-19T05:34:17.328Z,32.50
2019-01-19T05:36:51.914Z,32.50
2019-01-19T05:39:26.691Z,32.50
2019-01-19T05:42:00.814Z,32.60
2019-01-19T05:44:35.379Z,32.60
2019-01-19T05:47:10.255Z,32.60
2019-01-19T05:49:44.824Z,32.70
2019-01-19T05:52:19.014Z,32.70
2019-01-19T05:54:54.000Z,32.70
2019-01-19T05:57:28.664Z,32.80
2019-01-19T06:00:03.643Z,32.80
2019-01-19T06:02:38.676Z,32.80
2019-01-19T06:05:13.008Z,32.80
2019-01-19T06:07:47.480Z,32.90
2019-01-19T06:10:22.271Z,32.90
2019-01-19T06:12:58.630Z,32.90
2019-01-19T06:15:33.114Z,32.90
2019-01-19T06:18:07.714Z,33.00
2019-01-19T06:20:42.249Z,33.00
2019-01-19T06:23:17.184Z,33.00
2019-01-19T06:25:51.438Z,33.00
2019-01-19T06:28:26.244Z,33.10
2019-01-19T06:31:00.632Z,33.10
2019-01-19T06:33:34.847Z,33.10
2019-01-19T06:36:09.361Z,33.20
2019-01-19T06:38:44.156Z,33.20
2019-01-19T06:41:18.642Z,33.20
2019-01-19T06:43:53.347Z,33.20
2019-01-19T06:46:28.278Z,33.30
2019-01-19T06:49:02.762Z,33.30
2019-01-19T06:51:37.082Z,33.30
2019-01-19T06:54:12.273Z,33.30
2019-01-19T06:56:47.158Z,33.40
2019-01-19T06:59:21.586Z,33.40
2019-01-19T07:01:55.350Z,33.40
2019-01-19T07:04:29.722Z,33.40
2019-01-19T07:07:04.157Z,33.50
2019-01-19T07:09:40.076Z,33.50
2019-01-19T07:12:16.912Z,33.50
2019-01-19T07:14:51.920Z,33.50
2019-01-19T07:17:26.116Z,33.60
2019-01-19T07:20:01.310Z,33.60
2019-01-19T07:22:35.595Z,33.70
2019-01-19T07:25:10.404Z,33.60
2019-01-19T07:27:44.747Z,33.70
2019-01-19T07:30:20.227Z,33.70
2019-01-19T07:32:54.428Z,33.80
2019-01-19T07:35:28.970Z,33.80
2019-01-19T07:38:03.845Z,33.80
2019-01-19T07:40:38.663Z,33.80
2019-01-19T07:43:15.937Z,33.80
2019-01-19T07:45:50.037Z,33.80
2019-01-19T07:48:24.221Z,33.90
2019-01-19T07:50:59.063Z,33.90
2019-01-19T07:53:33.800Z,33.90
2019-01-19T07:56:09.254Z,34.00
2019-01-19T07:58:44.060Z,34.00
2019-01-19T08:01:18.713Z,34.00
2019-01-19T08:03:53.967Z,34.00
2019-01-19T08:06:28.561Z,34.00
2019-01-19T08:09:03.264Z,34.00
2019-01-19T08:11:38.086Z,34.10
2019-01-19T08:14:12.332Z,34.10
2019-01-19T08:16:46.586Z,34.10
2019-01-19T08:19:21.036Z,34.10
2019-01-19T08:21:56.234Z,34.10
2019-01-19T08:24:30.687Z,34.10
2019-01-19T08:27:05.417Z,34.10
2019-01-19T08:29:40.620Z,34.10
2019-01-19T08:32:15.526Z,34.20
2019-01-19T08:34:50.547Z,34.20
2019-01-19T08:37:25.093Z,34.20
2019-01-19T08:39:59.864Z,34.30
2019-01-19T08:42:34.682Z,34.20
2019-01-19T08:45:09.667Z,34.30
2019-01-19T08:47:44.011Z,34.30
2019-01-19T08:50:24.909Z,34.20
2019-01-19T08:52:59.264Z,34.20
2019-01-19T08:55:34.132Z,34.20
2019-01-19T08:58:08.752Z,34.20
2019-01-19T09:00:43.510Z,34.30
2019-01-19T09:03:17.927Z,34.30
2019-01-19T09:05:53.104Z,34.20
2019-01-19T09:08:27.865Z,34.30
2019-01-19T09:11:03.828Z,34.20
2019-01-19T09:13:38.432Z,34.20
2019-01-19T09:16:24.381Z,34.20
2019-01-19T09:18:58.821Z,34.20
2019-01-19T09:21:33.509Z,34.20
2019-01-19T09:24:29.469Z,34.20
2019-01-19T09:27:03.741Z,34.20
2019-01-19T09:29:38.516Z,34.20
2019-01-19T09:32:13.543Z,34.20
2019-01-19T09:34:47.977Z,34.20
2019-01-19T09:37:22.649Z,34.20
2019-01-19T09:39:59.414Z,34.20
2019-01-19T09:42:34.486Z,34.20
2019-01-19T09:45:09.484Z,34.20
2019-01-19T09:47:44.370Z,34.20
2019-01-19T09:50:19.685Z,34.20
2019-01-19T09:52:54.266Z,34.20
2019-01-19T09:55:28.819Z,34.20
2019-01-19T09:58:03.897Z,34.30
2019-01-19T10:00:45.426Z,34.20
2019-01-19T10:03:14.817Z,34.20
2019-01-19T10:05:49.631Z,34.20
2019-01-19T10:08:24.337Z,34.30
2019-01-19T10:10:59.291Z,34.20
2019-01-19T10:13:34.009Z,34.30
2019-01-19T10:16:09.923Z,34.20
2019-01-19T10:18:44.261Z,34.20
2019-01-19T10:21:25.980Z,34.20
2019-01-19T10:24:00.786Z,34.20
2019-01-19T10:26:42.319Z,34.20
2019-01-19T10:29:17.590Z,34.20
2019-01-19T10:31:52.454Z,34.20
2019-01-19T10:34:27.132Z,34.20
2019-01-19T10:37:01.483Z,34.20
2019-01-19T10:39:36.185Z,34.20
2019-01-19T10:42:10.868Z,34.20
2019-01-19T10:44:45.298Z,34.20
2019-01-19T10:47:20.542Z,34.20
2019-01-19T10:49:55.003Z,34.10
2019-01-19T10:52:30.230Z,34.20
2019-01-19T10:55:04.963Z,34.20
2019-01-19T10:57:39.932Z,34.20
2019-01-19T11:00:19.136Z,34.10
2019-01-19T11:02:53.724Z,34.10
2019-01-19T11:05:29.992Z,34.10
2019-01-19T11:08:05.103Z,34.10
2019-01-19T11:10:39.814Z,34.10
2019-01-19T11:13:14.861Z,34.10
2019-01-19T11:15:49.280Z,34.10
2019-01-19T11:18:30.972Z,34.10
2019-01-19T11:21:05.605Z,34.10
2019-01-19T11:23:40.569Z,34.00
2019-01-19T11:26:15.578Z,34.00
2019-01-19T11:28:50.989Z,34.00
2019-01-19T11:31:26.225Z,34.00
2019-01-19T11:34:01.038Z,34.00
2019-01-19T11:36:35.711Z,34.00
2019-01-19T11:39:12.615Z,34.00
2019-01-19T11:41:47.220Z,34.00
2019-01-19T11:44:22.070Z,34.00
2019-01-19T11:46:56.678Z,33.90
2019-01-19T11:49:31.793Z,34.00
2019-01-19T11:52:06.400Z,33.90
2019-01-19T11:54:41.251Z,33.90
2019-01-19T11:57:15.985Z,33.90
2019-01-19T11:59:50.413Z,33.90
2019-01-19T12:02:25.187Z,33.80
2019-01-19T12:04:59.930Z,33.80
2019-01-19T12:07:34.990Z,33.80
2019-01-19T12:10:10.744Z,33.80
2019-01-19T12:12:45.927Z,33.80
2019-01-19T12:15:20.472Z,33.80
2019-01-19T12:17:55.061Z,33.70
2019-01-19T12:20:40.818Z,33.60
2019-01-19T12:23:15.312Z,33.40
2019-01-19T12:25:49.772Z,33.30
2019-01-19T12:28:24.748Z,33.00
2019-01-19T12:30:59.225Z,32.90
2019-01-19T12:33:34.034Z,32.70
2019-01-19T12:36:08.318Z,32.50
2019-01-19T12:38:42.681Z,32.30
2019-01-19T12:41:17.614Z,32.10
2019-01-19T12:43:52.249Z,32.00
2019-01-19T12:46:26.913Z,31.80
2019-01-19T12:49:01.326Z,31.70
2019-01-19T12:51:36.288Z,31.60
2019-01-19T12:54:10.955Z,31.50
2019-01-19T12:56:45.355Z,31.40
2019-01-19T12:59:20.535Z,31.30
2019-01-19T13:01:55.276Z,31.20
2019-01-19T13:04:29.555Z,31.20
2019-01-19T13:07:14.534Z,31.10
2019-01-19T13:10:02.678Z,31.10
2019-01-19T13:12:56.857Z,31.10
2019-01-19T13:16:13.714Z,31.00
2019-01-19T13:19:32.710Z,31.00
2019-01-19T13:22:31.818Z,30.90
2019-01-19T13:25:40.434Z,30.90
2019-01-19T13:28:55.895Z,30.90
2019-01-19T13:31:53.981Z,30.80
2019-01-19T13:35:11.284Z,30.70
2019-01-19T13:38:16.391Z,30.70
2019-01-19T13:41:33.377Z,30.60
2019-01-19T13:44:37.811Z,30.60
2019-01-19T13:47:38.525Z,30.60
2019-01-19T13:50:41.312Z,30.60
2019-01-19T13:53:51.174Z,30.50
2019-01-19T13:56:47.553Z,30.60
2019-01-19T14:00:07.920Z,30.60
2019-01-19T14:03:40.120Z,30.60
2019-01-19T14:06:40.604Z,30.70
2019-01-19T14:09:55.801Z,30.80
2019-01-19T14:13:16.390Z,30.80
2019-01-19T14:16:14.264Z,31.00
2019-01-19T14:19:43.349Z,31.10
2019-01-19T14:22:55.870Z,31.10
2019-01-19T14:26:01.371Z,31.20
2019-01-19T14:29:10.877Z,31.30
2019-01-19T14:32:37.894Z,31.40
2019-01-19T14:35:48.691Z,31.40
2019-01-19T14:38:56.902Z,31.50
2019-01-19T14:42:11.363Z,31.60
2019-01-19T14:45:11.568Z,31.60
2019-01-19T14:47:57.442Z,31.70
2019-01-19T14:51:15.767Z,31.70
2019-01-19T14:54:10.095Z,31.80
2019-01-19T14:56:54.132Z,31.80
2019-01-19T15:00:15.678Z,31.90
2019-01-19T15:03:33.297Z,31.90
2019-01-19T15:07:02.727Z,32.00
2019-01-19T15:10:09.677Z,31.90
2019-01-19T15:13:19.552Z,32.00
2019-01-19T15:16:25.143Z,32.00
2019-01-19T15:19:38.953Z,32.00
2019-01-19T15:22:41.937Z,32.00
2019-01-19T15:26:13.838Z,32.10
2019-01-19T15:29:06.634Z,32.10
2019-01-19T15:32:17.878Z,32.00
2019-01-19T15:35:40.761Z,32.10
2019-01-19T15:38:51.348Z,32.10
2019-01-19T15:41:57.536Z,32.10
2019-01-19T15:44:42.675Z,32.10
2019-01-19T15:48:02.611Z,32.10
2019-01-19T15:51:14.819Z,32.10
2019-01-19T15:54:16.864Z,32.10
2019-01-19T15:57:27.376Z,32.10
2019-01-19T16:00:31.347Z,32.10
2019-01-19T16:03:47.904Z,32.10
2019-01-19T16:06:37.372Z,32.10
2019-01-19T16:09:31.663Z,32.10
2019-01-19T16:12:46.013Z,32.10
2019-01-19T16:16:08.520Z,32.10
2019-01-19T16:19:04.108Z,32.10
2019-01-19T16:21:54.808Z,32.20
2019-01-19T16:25:17.255Z,32.20
2019-01-19T16:28:16.513Z,32.10
2019-01-19T16:31:25.505Z,32.10
2019-01-19T16:34:32.162Z,32.10
2019-01-19T16:37:33.180Z,32.10
2019-01-19T16:40:33.426Z,32.10
2019-01-19T16:43:35.921Z,32.10
2019-01-19T16:46:34.507Z,32.10
2019-01-19T16:49:29.810Z,32.10
2019-01-19T16:52:45.590Z,32.10
2019-01-19T16:55:30.958Z,32.10
2019-01-19T16:58:16.275Z,32.00
2019-01-19T17:01:12.324Z,32.10
2019-01-19T17:04:28.750Z,32.10
2019-01-19T17:07:39.988Z,32.00
2019-01-19T17:11:00.925Z,32.00
2019-01-19T17:14:15.180Z,32.00
2019-01-19T17:17:27.500Z,32.00
2019-01-19T17:20:30.839Z,32.00
2019-01-19T17:23:34.673Z,32.00
2019-01-19T17:26:36.908Z,32.00
2019-01-19T17:29:39.471Z,32.00
2019-01-19T17:33:05.697Z,32.00
2019-01-19T17:36:11.933Z,32.00
2019-01-19T17:39:24.587Z,32.00
2019-01-19T17:42:42.426Z,32.00
2019-01-19T17:45:41.596Z,31.90
2019-01-19T17:48:44.660Z,32.00
2019-01-19T17:51:31.546Z,31.90
2019-01-19T17:54:59.658Z,31.90
2019-01-19T17:58:01.562Z,31.90
2019-01-19T18:01:37.376Z,31.90
2019-01-19T18:04:42.728Z,31.90
2019-01-19T18:07:51.303Z,31.90
2019-01-19T18:10:46.719Z,31.90
2019-01-19T18:13:47.730Z,31.90
2019-01-19T18:16:49.498Z,31.90
2019-01-19T18:20:02.691Z,31.90
2019-01-19T18:23:28.789Z,31.90
2019-01-19T18:26:47.662Z,31.90
2019-01-19T18:29:59.584Z,31.80
2019-01-19T18:33:14.323Z,31.80
2019-01-19T18:36:26.258Z,31.80
2019-01-19T18:39:32.296Z,31.80
2019-01-19T18:42:25.151Z,31.80
2019-01-19T18:45:30.779Z,31.80
2019-01-19T18:49:12.020Z,31.80
2019-01-19T18:52:26.502Z,31.80
2019-01-19T18:55:27.420Z,31.70
2019-01-19T18:58:53.494Z,31.70
2019-01-19T19:02:10.607Z,31.70
2019-01-19T19:05:28.607Z,31.70
2019-01-19T19:08:37.216Z,31.70
2019-01-19T19:12:04.455Z,31.70
2019-01-19T19:15:06.677Z,31.70
2019-01-19T19:18:35.367Z,31.70
2019-01-19T19:21:53.430Z,31.70
2019-01-19T19:24:46.480Z,31.70
2019-01-19T19:28:03.688Z,31.70
2019-01-19T19:30:59.228Z,31.70
2019-01-19T19:34:05.884Z,31.70
2019-01-19T19:37:07.982Z,31.70
2019-01-19T19:40:16.109Z,31.60
2019-01-19T19:43:47.441Z,31.60
2019-01-19T19:46:52.771Z,31.60
2019-01-19T19:50:06.281Z,31.60
2019-01-19T19:52:40.865Z,31.50
2019-01-19T19:55:12.029Z,31.60
2019-01-19T19:57:46.598Z,31.60
2019-01-19T20:00:21.786Z,31.60
2019-01-19T20:02:56.324Z,31.60
2019-01-19T20:05:31.178Z,31.60
2019-01-19T20:08:05.710Z,31.60
2019-01-19T20:10:40.087Z,31.60
2019-01-19T20:13:15.016Z,31.60
2019-01-19T20:15:49.551Z,31.60
2019-01-19T20:18:24.129Z,31.60
2019-01-19T20:20:58.634Z,31.60
2019-01-19T20:23:33.285Z,31.70
2019-01-19T20:26:14.821Z,31.70
2019-01-19T20:28:49.518Z,31.60
2019-01-19T20:31:24.445Z,31.60
2019-01-19T20:33:58.664Z,31.60
2019-01-19T20:36:33.776Z,31.60
2019-01-19T20:39:10.092Z,31.60
2019-01-19T20:41:44.728Z,31.60
2019-01-19T20:44:19.603Z,31.60
2019-01-19T20:46:54.093Z,31.60
2019-01-19T20:49:29.069Z,31.60
2019-01-19T20:52:03.790Z,31.60
2019-01-19T20:54:45.722Z,31.60
2019-01-19T20:57:20.261Z,31.60
2019-01-19T20:59:55.022Z,31.60
2019-01-19T21:02:29.680Z,31.60
2019-01-19T21:05:10.974Z,31.60
2019-01-19T21:07:52.153Z,31.60
2019-01-19T21:10:31.678Z,31.60
2019-01-19T21:13:09.473Z,31.60
2019-01-19T21:15:44.186Z,31.60
2019-01-19T21:18:24.675Z,31.50
2019-01-19T21:20:59.191Z,31.50
2019-01-19T21:23:41.398Z,31.50
2019-01-19T21:26:15.972Z,31.50
2019-01-19T21:28:57.563Z,31.50
2019-01-19T21:31:32.409Z,31.50
2019-01-19T21:34:06.758Z,31.50
2019-01-19T21:36:47.486Z,31.50
2019-01-19T21:39:22.451Z,31.50
2019-01-19T21:41:57.374Z,31.50
2019-01-19T21:44:31.761Z,31.50
2019-01-19T21:47:13.783Z,31.50
2019-01-19T21:49:48.649Z,31.50
2019-01-19T21:52:23.515Z,31.50
2019-01-19T21:54:58.645Z,31.50
2019-01-19T21:57:40.368Z,31.50
2019-01-19T22:00:17.240Z,31.40
2019-01-19T22:02:52.331Z,31.40
2019-01-19T22:05:27.008Z,31.40
2019-01-19T22:08:07.979Z,31.40
2019-01-19T22:10:46.397Z,31.40
2019-01-19T22:13:19.553Z,31.40
2019-01-19T22:16:00.956Z,31.40
2019-01-19T22:18:35.464Z,31.40
2019-01-19T22:21:10.369Z,31.40
2019-01-19T22:23:45.135Z,31.40
2019-01-19T22:26:29.504Z,31.40
2019-01-19T22:29:04.389Z,31.40
2019-01-19T22:31:38.825Z,31.40
2019-01-19T22:34:20.417Z,31.30
2019-01-19T22:36:55.109Z,31.30
2019-01-19T22:39:30.095Z,31.30
2019-01-19T22:42:05.249Z,31.30
2019-01-19T22:44:39.984Z,31.30
2019-01-19T22:47:21.525Z,31.30
2019-01-19T22:49:56.374Z,31.30
2019-01-19T22:52:32.088Z,31.30
2019-01-19T22:55:06.702Z,31.30
2019-01-19T22:57:48.410Z,31.30
2019-01-19T23:01:06.168Z,31.30
2019-01-19T23:03:49.981Z,31.20
2019-01-19T23:06:24.722Z,31.20
2019-01-19T23:08:59.971Z,31.30
2019-01-19T23:11:35.023Z,31.20
2019-01-19T23:14:10.718Z,31.20
2019-01-19T23:16:52.586Z,31.20
2019-01-19T23:19:27.271Z,31.20
2019-01-19T23:22:02.505Z,31.20
2019-01-19T23:24:36.924Z,31.20
2019-01-19T23:27:11.925Z,31.20
2019-01-19T23:29:54.428Z,31.10
2019-01-19T23:32:29.501Z,31.20
2019-01-19T23:35:11.171Z,31.20
2019-01-19T23:37:53.780Z,31.20
2019-01-19T23:40:36.065Z,31.10
2019-01-19T23:43:11.263Z,31.10
2019-01-19T23:45:46.028Z,31.10
2019-01-19T23:48:21.174Z,31.10
2019-01-19T23:50:55.877Z,31.10
2019-01-19T23:53:37.703Z,31.10
2019-01-19T23:56:12.152Z,31.10
2019-01-19T23:58:47.692Z,31.10
